createdAt,value
2019-03-22T00:01:59.580Z,96445.09
2019-03-22T00:04:29.751Z,96443.30
2019-03-22T00:06:59.945Z,96441.75
2019-03-22T00:09:30.255Z,96433.72
2019-03-22T00:12:00.572Z,96435.41
2019-03-22T00:14:30.846Z,96435.89
2019-03-22T00:17:01.124Z,96438.56
2019-03-22T00:19:31.269Z,96439.08
2019-03-22T00:22:01.503Z,96437.30
2019-03-22T00:24:31.692Z,96436.47
2019-03-22T00:27:01.910Z,96437.43
2019-03-22T00:29:32.156Z,96435.06
2019-03-22T00:32:02.420Z,96436.09
2019-03-22T00:34:32.622Z,96439.14
2019-03-22T00:37:02.917Z,96440.80
2019-03-22T00:39:33.237Z,96438.49
2019-03-22T00:42:03.381Z,96440.28
2019-03-22T00:44:33.594Z,96437.98
2019-03-22T00:47:03.831Z,96441.69
2019-03-22T00:49:34.186Z,96440.14
2019-03-22T00:52:04.455Z,96435.64
2019-03-22T00:54:34.600Z,96436.50
2019-03-22T00:57:04.828Z,96430.32
2019-03-22T00:59:35.044Z,96434.79
2019-03-22T01:02:05.354Z,96430.02
2019-03-22T01:04:35.671Z,96433.37
2019-03-22T01:07:05.899Z,96430.84
2019-03-22T01:09:36.130Z,96437.22
2019-03-22T01:12:06.363Z,96428.23
2019-03-22T01:14:36.656Z,96429.88
2019-03-22T01:17:06.888Z,96426.52
2019-03-22T01:19:37.004Z,96431.15
2019-03-22T01:22:07.202Z,96431.90
2019-03-22T01:24:37.369Z,96429.36
2019-03-22T01:27:07.678Z,96426.82
2019-03-22T01:29:37.847Z,96430.70
2019-03-22T01:32:08.037Z,96426.00
2019-03-22T01:34:38.270Z,96428.53
2019-03-22T01:37:08.488Z,96429.36
2019-03-22T01:39:38.716Z,96424.83
2019-03-22T01:42:09.012Z,96426.14
2019-03-22T01:44:39.292Z,96418.86
2019-03-22T01:47:09.482Z,96415.02
2019-03-22T01:49:39.732Z,96421.53
2019-03-22T01:52:10.004Z,96413.67
2019-03-22T01:54:40.234Z,96414.98
2019-03-22T01:57:10.555Z,96413.81
2019-03-22T01:59:40.705Z,96407.12
2019-03-22T02:02:10.924Z,96413.16
2019-03-22T02:04:41.158Z,96416.35
2019-03-22T02:07:11.445Z,96419.54
2019-03-22T02:09:41.781Z,96409.14
2019-03-22T02:12:12.006Z,96417.17
2019-03-22T02:14:42.258Z,96417.89
2019-03-22T02:17:12.456Z,96419.92
2019-03-22T02:19:42.769Z,96420.61
2019-03-22T02:22:13.095Z,96417.10
2019-03-22T02:24:43.473Z,96418.30
2019-03-22T02:27:13.671Z,96427.36
2019-03-22T02:29:44.513Z,96422.25
2019-03-22T02:32:14.752Z,96422.97
2019-03-22T02:34:44.938Z,96421.26
2019-03-22T02:37:15.363Z,96423.66
2019-03-22T02:39:45.823Z,96427.98
2019-03-22T02:42:16.218Z,96433.84
2019-03-22T02:44:46.530Z,96435.39
2019-03-22T02:47:16.679Z,96439.06
2019-03-22T02:49:46.909Z,96435.56
2019-03-22T02:52:17.125Z,96435.73
2019-03-22T02:54:47.437Z,96432.71
2019-03-22T02:57:17.754Z,96434.73
2019-03-22T02:59:48.008Z,96438.06
2019-03-22T03:02:18.230Z,96438.41
2019-03-22T03:04:48.454Z,96438.78
2019-03-22T03:07:18.683Z,96435.97
2019-03-22T03:09:48.972Z,96440.43
2019-03-22T03:12:19.295Z,96434.80
2019-03-22T03:14:49.454Z,96432.41
2019-03-22T03:17:19.659Z,96435.45
2019-03-22T03:19:49.891Z,96435.25
2019-03-22T03:22:20.180Z,96433.29
2019-03-22T03:24:50.413Z,96432.09
2019-03-22T03:27:20.549Z,96425.57
2019-03-22T03:29:50.786Z,96427.28
2019-03-22T03:32:21.020Z,96427.97
2019-03-22T03:34:51.320Z,96430.47
2019-03-22T03:37:21.529Z,96432.95
2019-03-22T03:39:51.672Z,96426.59
2019-03-22T03:42:21.907Z,96429.45
2019-03-22T03:44:52.123Z,96436.82
2019-03-22T03:47:22.409Z,96430.12
2019-03-22T03:49:52.640Z,96429.27
2019-03-22T03:52:22.887Z,96428.42
2019-03-22T03:54:53.116Z,96431.95
2019-03-22T03:57:23.324Z,96432.19
2019-03-22T03:59:53.671Z,96427.66
2019-03-22T04:02:23.952Z,96432.33
2019-03-22T04:04:54.100Z,96428.71
2019-03-22T04:07:24.336Z,96431.08
2019-03-22T04:09:54.544Z,96438.25
2019-03-22T04:12:24.848Z,96440.23
2019-03-22T04:14:55.069Z,96437.91
2019-03-22T04:17:25.230Z,96433.52
2019-03-22T04:19:55.334Z,96438.02
2019-03-22T04:22:25.561Z,96427.80
2019-03-22T04:24:55.856Z,96430.50
2019-03-22T04:27:26.089Z,96432.80
2019-03-22T04:29:56.342Z,96433.83
2019-03-22T04:32:26.557Z,96431.84
2019-03-22T04:34:56.786Z,96437.25
2019-03-22T04:37:27.083Z,96438.02
2019-03-22T04:39:57.396Z,96437.56
2019-03-22T04:42:27.554Z,96439.35
2019-03-22T04:44:57.774Z,96440.21
2019-03-22T04:47:28.045Z,96446.90
2019-03-22T04:49:58.196Z,96452.94
2019-03-22T04:52:28.413Z,96451.91
2019-03-22T04:54:58.671Z,96453.59
2019-03-22T04:57:28.886Z,96450.91
2019-03-22T04:59:59.529Z,96460.77
2019-03-22T05:02:29.735Z,96458.42
2019-03-22T05:05:00.116Z,96463.44
2019-03-22T05:07:30.585Z,96461.64
2019-03-22T05:10:00.800Z,96461.98
2019-03-22T05:12:30.977Z,96463.27
2019-03-22T05:15:01.289Z,96470.64
2019-03-22T05:17:33.259Z,96467.68
2019-03-22T05:20:03.392Z,96470.33
2019-03-22T05:22:33.615Z,96471.52
2019-03-22T05:25:03.821Z,96471.98
2019-03-22T05:27:34.106Z,96469.16
2019-03-22T05:30:04.702Z,96468.53
2019-03-22T05:32:34.872Z,96465.86
2019-03-22T05:35:07.404Z,96477.41
2019-03-22T05:37:37.347Z,96473.40
2019-03-22T05:40:07.781Z,96470.70
2019-03-22T05:42:37.983Z,96470.89
2019-03-22T05:45:08.465Z,96472.63
2019-03-22T05:47:38.657Z,96468.33
2019-03-22T05:50:08.922Z,96471.52
2019-03-22T05:52:39.103Z,96454.21
2019-03-22T05:55:09.413Z,96449.75
2019-03-22T05:57:39.640Z,96449.44
2019-03-22T06:00:09.779Z,96450.14
2019-03-22T06:02:40.003Z,96449.37
2019-03-22T06:05:10.303Z,96471.30
2019-03-22T06:07:40.567Z,96471.01
2019-03-22T06:10:10.855Z,96466.45
2019-03-22T06:12:40.998Z,96465.59
2019-03-22T06:15:11.201Z,96458.33
2019-03-22T06:17:51.157Z,96471.27
2019-03-22T06:20:13.381Z,96464.69
2019-03-22T06:22:43.613Z,96463.67
2019-03-22T06:25:13.857Z,96461.51
2019-03-22T06:27:44.080Z,96463.55
2019-03-22T06:30:14.229Z,96466.69
2019-03-22T06:32:44.505Z,96474.63
2019-03-22T06:35:14.825Z,96463.16
2019-03-22T06:37:44.957Z,96462.56
2019-03-22T06:40:15.172Z,96457.23
2019-03-22T06:42:45.414Z,96459.98
2019-03-22T06:45:15.724Z,96457.72
2019-03-22T06:47:45.947Z,96459.68
2019-03-22T06:50:16.192Z,96458.52
2019-03-22T06:52:46.142Z,96453.15
2019-03-22T06:55:16.407Z,96457.93
2019-03-22T06:57:46.635Z,96455.94
2019-03-22T07:00:16.766Z,96453.62
2019-03-22T07:02:46.993Z,96457.84
2019-03-22T07:05:17.319Z,96452.34
2019-03-22T07:07:47.526Z,96460.68
2019-03-22T07:10:17.858Z,96458.97
2019-03-22T07:12:48.173Z,96452.34
2019-03-22T07:15:18.407Z,96450.33
2019-03-22T07:17:48.655Z,96450.80
2019-03-22T07:20:18.861Z,96452.64
2019-03-22T07:22:49.193Z,96447.28
2019-03-22T07:25:19.485Z,96447.28
2019-03-22T07:27:49.732Z,96447.30
2019-03-22T07:30:19.945Z,96442.16
2019-03-22T07:32:50.182Z,96438.66
2019-03-22T07:35:20.480Z,96442.45
2019-03-22T07:37:50.554Z,96440.60
2019-03-22T07:40:20.729Z,96438.92
2019-03-22T07:42:50.952Z,96434.73
2019-03-22T07:45:21.200Z,96436.08
2019-03-22T07:47:51.363Z,96428.05
2019-03-22T07:50:21.614Z,96430.22
2019-03-22T07:52:51.682Z,96426.89
2019-03-22T07:55:21.868Z,96423.53
2019-03-22T07:57:52.190Z,96425.84
2019-03-22T08:00:30.841Z,96418.64
2019-03-22T08:02:54.583Z,96418.84
2019-03-22T08:05:24.793Z,96414.00
2019-03-22T08:07:56.125Z,96418.47
2019-03-22T08:10:26.479Z,96408.08
2019-03-22T08:12:57.017Z,96414.77
2019-03-22T08:15:31.916Z,96404.07
2019-03-22T08:18:02.555Z,96400.86
2019-03-22T08:23:01.510Z,96393.83
2019-03-22T08:25:32.570Z,96392.97
2019-03-22T08:28:02.864Z,96393.66
2019-03-22T08:30:42.391Z,96389.79
2019-03-22T08:33:05.067Z,96387.63
2019-03-22T08:35:36.217Z,96381.22
2019-03-22T08:38:06.401Z,96385.71
2019-03-22T08:40:36.546Z,96379.54
2019-03-22T08:43:06.938Z,96379.16
2019-03-22T08:45:37.198Z,96374.33
2019-03-22T08:48:07.447Z,96373.50
2019-03-22T08:50:37.658Z,96370.97
2019-03-22T08:53:07.939Z,96373.13
2019-03-22T08:55:38.226Z,96369.77
2019-03-22T08:58:08.533Z,96366.23
2019-03-22T09:00:39.883Z,96363.31
2019-03-22T09:03:10.277Z,96357.48
2019-03-22T09:05:40.735Z,96354.81
2019-03-22T09:08:11.013Z,96347.81
2019-03-22T09:10:41.243Z,96345.45
2019-03-22T09:13:11.477Z,96350.63
2019-03-22T09:15:42.132Z,96345.42
2019-03-22T09:18:14.268Z,96349.12
2019-03-22T09:20:44.429Z,96342.09
2019-03-22T09:23:14.718Z,96336.81
2019-03-22T09:25:44.843Z,96332.94
2019-03-22T09:28:15.066Z,96329.16
2019-03-22T09:30:45.312Z,96327.48
2019-03-22T09:33:15.571Z,96320.52
2019-03-22T09:35:45.870Z,96320.52
2019-03-22T09:38:16.187Z,96316.03
2019-03-22T09:40:46.341Z,96318.08
2019-03-22T09:43:16.519Z,96315.67
2019-03-22T09:45:46.771Z,96313.95
2019-03-22T09:48:17.049Z,96312.92
2019-03-22T09:50:47.293Z,96308.20
2019-03-22T09:53:17.446Z,96309.06
2019-03-22T09:55:47.634Z,96305.59
2019-03-22T09:58:18.007Z,96299.88
2019-03-22T10:00:48.905Z,96297.63
2019-03-22T10:03:19.258Z,96290.05
2019-03-22T10:05:49.451Z,96290.06
2019-03-22T10:08:19.770Z,96287.16
2019-03-22T10:10:50.107Z,96285.23
2019-03-22T10:13:20.293Z,96282.00
2019-03-22T10:15:50.467Z,96283.58
2019-03-22T10:18:20.677Z,96275.32
2019-03-22T10:20:50.903Z,96277.23
2019-03-22T10:23:22.552Z,96280.05
2019-03-22T10:25:52.760Z,96278.98
2019-03-22T10:28:23.007Z,96269.76
2019-03-22T10:30:53.304Z,96263.34
2019-03-22T10:33:23.599Z,96262.41
2019-03-22T10:35:53.812Z,96256.65
2019-03-22T10:38:31.768Z,96254.36
2019-03-22T10:40:55.973Z,96252.19
2019-03-22T10:43:26.173Z,96247.92
2019-03-22T10:45:57.113Z,96246.06
2019-03-22T10:48:28.019Z,96236.69
2019-03-22T10:50:58.347Z,96234.66
2019-03-22T10:53:28.536Z,96231.47
2019-03-22T10:56:00.984Z,96233.94
2019-03-22T10:58:31.676Z,96226.25
2019-03-22T11:01:01.969Z,96223.19
2019-03-22T11:03:32.183Z,96222.98
2019-03-22T11:06:02.398Z,96222.29
2019-03-22T11:08:32.693Z,96220.25
2019-03-22T11:11:03.002Z,96206.36
2019-03-22T11:13:33.324Z,96205.14
2019-03-22T11:16:04.046Z,96193.48
2019-03-22T11:18:37.617Z,96187.23
2019-03-22T11:21:06.178Z,96188.39
2019-03-22T11:23:36.385Z,96183.34
2019-03-22T11:26:06.506Z,96183.46
2019-03-22T11:28:36.847Z,96180.58
2019-03-22T11:31:07.133Z,96179.17
2019-03-22T11:33:37.290Z,96176.45
2019-03-22T11:36:07.509Z,96168.75
2019-03-22T11:38:37.738Z,96164.47
2019-03-22T11:41:07.956Z,96153.56
2019-03-22T11:43:38.310Z,96145.49
2019-03-22T11:46:08.573Z,96152.06
2019-03-22T11:48:38.712Z,96150.73
2019-03-22T11:51:09.060Z,96144.37
2019-03-22T11:53:39.271Z,96148.69
2019-03-22T11:56:09.583Z,96143.03
2019-03-22T11:58:39.893Z,96139.31
2019-03-22T12:01:19.158Z,96133.66
2019-03-22T12:03:42.013Z,96130.64
2019-03-22T12:06:12.285Z,96122.55
2019-03-22T12:08:42.360Z,96114.82
2019-03-22T12:11:12.663Z,96112.14
2019-03-22T12:13:42.918Z,96116.47
2019-03-22T12:16:13.132Z,96115.34
2019-03-22T12:18:43.337Z,96108.43
2019-03-22T12:21:13.677Z,96103.20
2019-03-22T12:23:43.964Z,96101.03
2019-03-22T12:26:14.113Z,96100.34
2019-03-22T12:28:44.344Z,96093.77
2019-03-22T12:31:15.570Z,96090.75
2019-03-22T12:33:45.794Z,96083.23
2019-03-22T12:36:16.023Z,96081.83
2019-03-22T12:38:46.369Z,96075.44
2019-03-22T12:41:16.590Z,96077.30
2019-03-22T12:43:46.876Z,96082.04
2019-03-22T12:46:17.110Z,96074.34
2019-03-22T12:48:48.655Z,96072.78
2019-03-22T12:51:18.881Z,96067.42
2019-03-22T12:53:49.096Z,96063.51
2019-03-22T12:56:19.242Z,96059.20
2019-03-22T12:58:49.457Z,96068.58
2019-03-22T13:01:19.722Z,96064.75
2019-03-22T13:03:49.834Z,96059.73
2019-03-22T13:06:20.112Z,96053.55
2019-03-22T13:08:50.357Z,96047.67
2019-03-22T13:11:20.590Z,96046.45
2019-03-22T13:13:50.801Z,96049.43
2019-03-22T13:16:21.118Z,96039.42
2019-03-22T13:18:51.429Z,96034.70
2019-03-22T13:21:21.573Z,96034.11
2019-03-22T13:23:51.789Z,96025.11
2019-03-22T13:26:22.033Z,96020.48
2019-03-22T13:28:52.318Z,96019.33
2019-03-22T13:31:22.651Z,96016.53
2019-03-22T13:33:52.870Z,96013.73
2019-03-22T13:36:23.015Z,96012.63
2019-03-22T13:38:53.245Z,96005.63
2019-03-22T13:41:23.461Z,95997.90
2019-03-22T13:43:53.762Z,95999.57
2019-03-22T13:46:23.988Z,95999.70
2019-03-22T13:48:54.125Z,95993.29
2019-03-22T13:51:24.362Z,95989.98
2019-03-22T13:53:54.571Z,95985.44
2019-03-22T13:56:24.885Z,95989.45
2019-03-22T13:58:55.118Z,95983.58
2019-03-22T14:01:25.239Z,95979.88
2019-03-22T14:03:55.467Z,95979.36
2019-03-22T14:06:25.776Z,95981.33
2019-03-22T14:08:56.097Z,95978.81
2019-03-22T14:11:26.237Z,95977.08
2019-03-22T14:13:56.469Z,95976.09
2019-03-22T14:16:26.738Z,95973.94
2019-03-22T14:18:56.981Z,95969.58
2019-03-22T14:21:27.203Z,95960.33
2019-03-22T14:23:57.352Z,95969.91
2019-03-22T14:26:27.592Z,95963.41
2019-03-22T14:28:57.796Z,95952.91
2019-03-22T14:31:28.096Z,95961.43
2019-03-22T14:33:58.329Z,95957.93
2019-03-22T14:36:28.454Z,95951.97
2019-03-22T14:38:58.692Z,95956.17
2019-03-22T14:41:28.899Z,95950.19
2019-03-22T14:43:59.117Z,95953.50
2019-03-22T14:46:29.333Z,95953.37
2019-03-22T14:48:59.468Z,95947.20
2019-03-22T14:51:29.692Z,95951.41
2019-03-22T14:53:59.917Z,95944.41
2019-03-22T14:56:30.227Z,95936.68
2019-03-22T14:59:00.366Z,95942.89
2019-03-22T15:01:30.585Z,95943.89
2019-03-22T15:04:00.720Z,95937.20
2019-03-22T15:06:31.018Z,95941.73
2019-03-22T15:09:01.349Z,95944.53
2019-03-22T15:11:31.564Z,95948.31
2019-03-22T15:14:09.732Z,95947.80
2019-03-22T15:17:10.820Z,95948.19
2019-03-22T15:20:05.700Z,95948.71
2019-03-22T15:22:58.093Z,95952.84
2019-03-22T15:25:46.110Z,95956.04
2019-03-22T15:28:41.678Z,95955.22
2019-03-22T15:31:29.419Z,95951.69
2019-03-22T15:34:36.678Z,95958.59
2019-03-22T15:37:23.478Z,95958.27
2019-03-22T15:40:01.652Z,95965.29
2019-03-22T15:42:32.026Z,95963.13
2019-03-22T15:45:02.003Z,95964.35
2019-03-22T15:47:31.928Z,95959.94
2019-03-22T15:50:02.254Z,95968.67
2019-03-22T15:52:32.406Z,95966.69
2019-03-22T15:55:02.873Z,95969.77
2019-03-22T15:57:33.106Z,95975.86
2019-03-22T16:00:03.353Z,95974.94
2019-03-22T16:02:33.568Z,95977.31
2019-03-22T16:05:03.795Z,95980.05
2019-03-22T16:07:33.935Z,95985.71
2019-03-22T16:10:04.197Z,95987.90
2019-03-22T16:12:34.394Z,95985.71
2019-03-22T16:15:04.896Z,95983.55
2019-03-22T16:17:35.217Z,95987.90
2019-03-22T16:20:06.083Z,95989.23
2019-03-22T16:22:36.377Z,95987.78
2019-03-22T16:25:07.770Z,95987.44
2019-03-22T16:27:37.971Z,95993.02
2019-03-22T16:30:08.701Z,95991.67
2019-03-22T16:32:39.080Z,95993.41
2019-03-22T16:35:09.555Z,95994.80
2019-03-22T16:37:40.058Z,95997.48
2019-03-22T16:40:10.538Z,95983.73
2019-03-22T16:42:41.010Z,95999.91
2019-03-22T16:45:11.517Z,95992.25
2019-03-22T16:47:41.955Z,95991.64
2019-03-22T16:50:23.878Z,96000.23
2019-03-22T16:52:54.208Z,96002.00
2019-03-22T16:55:24.624Z,96004.08
2019-03-22T16:57:55.045Z,96001.45
2019-03-22T17:00:25.532Z,95998.99
2019-03-22T17:02:56.006Z,95996.92
2019-03-22T17:05:26.430Z,96002.88
2019-03-22T17:07:56.771Z,96006.09
2019-03-22T17:10:27.208Z,95997.56
2019-03-22T17:12:57.600Z,96002.08
2019-03-22T17:15:27.938Z,96005.19
2019-03-22T17:17:58.279Z,96003.72
2019-03-22T17:20:28.594Z,96001.86
2019-03-22T17:22:59.021Z,96007.55
2019-03-22T17:25:29.329Z,96003.34
2019-03-22T17:27:59.768Z,96004.93
2019-03-22T17:30:30.186Z,96003.41
2019-03-22T17:33:00.542Z,96006.22
2019-03-22T17:35:30.935Z,96010.23
2019-03-22T17:38:01.348Z,96008.90
2019-03-22T17:40:31.742Z,96007.44
2019-03-22T17:43:02.103Z,96009.71
2019-03-22T17:45:32.463Z,96008.78
2019-03-22T17:48:02.868Z,96001.61
2019-03-22T17:50:33.320Z,96008.67
2019-03-22T17:53:03.647Z,96016.58
2019-03-22T17:55:34.068Z,96009.61
2019-03-22T17:58:04.621Z,96014.12
2019-03-22T18:00:34.954Z,96011.89
2019-03-22T18:03:05.067Z,96014.57
2019-03-22T18:05:35.395Z,96013.14
2019-03-22T18:08:05.816Z,96010.98
2019-03-22T18:10:36.214Z,96008.64
2019-03-22T18:13:06.555Z,96018.02
2019-03-22T18:15:36.969Z,96011.10
2019-03-22T18:18:07.387Z,96022.45
2019-03-22T18:20:37.670Z,96029.14
2019-03-22T18:23:08.075Z,96026.16
2019-03-22T18:25:38.409Z,96034.10
2019-03-22T18:28:08.637Z,96027.38
2019-03-22T18:30:39.024Z,96028.05
2019-03-22T18:33:09.464Z,96034.41
2019-03-22T18:35:39.786Z,96029.97
2019-03-22T18:38:10.196Z,96034.22
2019-03-22T18:40:40.544Z,96027.92
2019-03-22T18:43:10.866Z,96029.66
2019-03-22T18:45:41.219Z,96028.11
2019-03-22T18:48:11.599Z,96032.77
2019-03-22T18:50:42.032Z,96029.69
2019-03-22T18:53:12.455Z,96037.41
2019-03-22T18:55:42.991Z,96032.13
2019-03-22T18:58:13.414Z,96025.77
2019-03-22T19:00:43.766Z,96025.03
2019-03-22T19:03:14.100Z,96024.55
2019-03-22T19:05:44.430Z,96024.84
2019-03-22T19:08:14.754Z,96024.63
2019-03-22T19:10:45.142Z,96027.41
2019-03-22T19:13:15.481Z,96035.16
2019-03-22T19:15:45.901Z,96026.43
2019-03-22T19:18:16.331Z,96024.33
2019-03-22T19:20:46.858Z,96025.67
2019-03-22T19:23:17.310Z,96025.67
2019-03-22T19:25:47.707Z,96027.31
2019-03-22T19:28:18.070Z,96010.16
2019-03-22T19:30:48.394Z,96024.97
2019-03-22T19:33:51.245Z,96023.47
2019-03-22T19:36:48.503Z,96034.72
2019-03-22T19:39:18.943Z,96029.25
2019-03-22T19:41:49.456Z,96026.57
2019-03-22T19:44:19.975Z,96023.70
2019-03-22T19:46:50.426Z,96022.72
2019-03-22T19:49:20.554Z,96024.17
2019-03-22T19:51:50.896Z,96023.20
2019-03-22T19:54:21.226Z,96021.77
2019-03-22T19:56:51.621Z,96020.31
2019-03-22T19:59:22.185Z,96020.53
2019-03-22T20:01:52.578Z,96022.97
2019-03-22T20:04:23.017Z,96026.61
2019-03-22T20:06:53.451Z,96032.68
2019-03-22T20:09:23.805Z,96025.98
2019-03-22T20:11:54.255Z,96024.64
2019-03-22T20:14:24.645Z,96032.77
2019-03-22T20:16:54.994Z,96038.52
2019-03-22T20:19:25.474Z,96039.68
2019-03-22T20:21:55.903Z,96035.24
2019-03-22T20:24:26.539Z,96035.69
2019-03-22T20:26:56.961Z,96033.83
2019-03-22T20:29:27.390Z,96031.34
2019-03-22T20:31:57.753Z,96030.61
2019-03-22T20:34:28.160Z,96030.97
2019-03-22T20:36:58.561Z,96031.43
2019-03-22T20:39:28.922Z,96031.34
2019-03-22T20:41:59.283Z,96040.86
2019-03-22T20:44:33.909Z,96040.52
2019-03-22T20:47:01.738Z,96039.09
2019-03-22T20:49:32.146Z,96040.44
2019-03-22T20:52:02.560Z,96038.45
2019-03-22T20:54:33.004Z,96038.64
2019-03-22T20:57:03.440Z,96036.91
2019-03-22T20:59:33.790Z,96034.44
2019-03-22T21:02:04.148Z,96038.36
2019-03-22T21:04:34.538Z,96036.20
2019-03-22T21:07:04.979Z,96032.00
2019-03-22T21:09:35.336Z,96027.81
2019-03-22T21:12:05.811Z,96035.36
2019-03-22T21:14:36.038Z,96028.56
2019-03-22T21:17:06.367Z,96029.48
2019-03-22T21:19:36.517Z,96031.11
2019-03-22T21:22:06.739Z,96026.97
2019-03-22T21:24:36.994Z,96026.85
2019-03-22T21:27:15.078Z,96027.61
2019-03-22T21:29:44.115Z,96030.77
2019-03-22T21:32:11.187Z,96027.79
2019-03-22T21:34:44.026Z,96022.44
2019-03-22T21:37:13.412Z,96022.03
2019-03-22T21:39:43.622Z,96026.27
2019-03-22T21:42:13.850Z,96031.64
2019-03-22T21:44:44.136Z,96037.06
2019-03-22T21:47:14.467Z,96043.06
2019-03-22T21:49:44.659Z,96038.98
2019-03-22T21:52:14.720Z,96038.52
2019-03-22T21:54:44.945Z,96036.88
2019-03-22T21:57:15.367Z,96035.03
2019-03-22T21:59:45.680Z,96041.60
2019-03-22T22:02:15.824Z,96043.39
2019-03-22T22:04:46.027Z,96043.34
2019-03-22T22:07:16.182Z,96040.66
2019-03-22T22:09:46.483Z,96045.10
2019-03-22T22:12:16.828Z,96041.70
2019-03-22T22:14:47.040Z,96043.86
2019-03-22T22:17:17.257Z,96047.48
2019-03-22T22:19:47.501Z,96039.14
2019-03-22T22:22:17.783Z,96047.33
2019-03-22T22:24:48.025Z,96046.23
2019-03-22T22:27:18.255Z,96039.54
2019-03-22T22:29:48.492Z,96037.16
2019-03-22T22:32:18.706Z,96038.38
2019-03-22T22:34:49.014Z,96035.52
2019-03-22T22:37:19.334Z,96040.24
2019-03-22T22:39:49.502Z,96038.90
2019-03-22T22:42:19.758Z,96041.48
2019-03-22T22:44:49.927Z,96039.20
2019-03-22T22:47:20.232Z,96036.92
2019-03-22T22:49:50.548Z,96039.17
2019-03-22T22:52:20.733Z,96033.94
2019-03-22T22:54:50.823Z,96035.04
2019-03-22T22:57:21.044Z,96033.73
2019-03-22T22:59:51.338Z,96037.56
2019-03-22T23:02:21.569Z,96030.87
2019-03-22T23:04:51.807Z,96029.59
2019-03-22T23:07:22.044Z,96036.53
2019-03-22T23:09:52.257Z,96040.03
2019-03-22T23:12:22.563Z,96042.53
2019-03-22T23:14:52.876Z,96044.11
2019-03-22T23:17:23.155Z,96051.05
2019-03-22T23:19:53.244Z,96049.37
2019-03-22T23:22:23.479Z,96056.98
2019-03-22T23:24:53.771Z,96056.46
2019-03-22T23:27:24.006Z,96053.48
2019-03-22T23:29:54.264Z,96054.45
2019-03-22T23:32:24.475Z,96059.63
2019-03-22T23:34:58.909Z,96056.86
2019-03-22T23:37:26.730Z,96052.94
2019-03-22T23:39:56.954Z,96046.30
2019-03-22T23:42:27.110Z,96046.52
2019-03-22T23:44:57.325Z,96045.36
2019-03-22T23:47:27.675Z,96045.59
2019-03-22T23:49:57.945Z,96046.84
2019-03-22T23:52:28.171Z,96047.39
2019-03-22T23:54:58.323Z,96040.70
2019-03-22T23:57:28.537Z,96031.73
2019-03-22T23:59:58.769Z,96031.02
